Latest Coastal Weather Observations for Portland Airport

IDS60701

Issued at 10:41 am CST Thursday 24 August 2017 (issued every 10 minutes, with the page automatically refreshed every 10 minutes)

About coastal observations | Map of coastal stations | Coastal observations for SA | Marine services | Other Formats
Station Details ID: 090171 Name: CASHMORE AIRPORT Lat: -38.31 Lon: 141.47 Height: 80.9 m
Data from the previous 72 hours. | See also: Recent months at Portland Airport
Date/Time
CST
Temp
°C
Wind Pressure Rain since
9am
mm
Weather Cloud Vis
km
Sea
Height
m
Swell
Dir  Spd
kts
Gust
kts
hPa Trend Height
m
Period
s
Dir
24/10:30am 11.0 SW 7 11 1025.6 - 0.0 - Partly cloudy 10 - - - -
24/10:00am 11.1 SSW 5 8 1025.4 - 0.0 - Partly cloudy 10 - - - -
24/09:30am 11.0 SSW 8 16 1025.1 - 0.0 - Partly cloudy 10 - - - -
24/09:00am 10.6 SSW 9 14 1024.8 - 0.0 - Partly cloudy 10 - - - -
24/08:30am 10.3 SW 7 11 1024.4 - 14.2 - Cloudy 10 - - - -
24/08:00am 10.4 SSW 8 12 1024.2 - 14.2 - Partly cloudy 10 - - - -
24/07:30am 9.5 SW 7 11 1023.8 - 14.2 - Partly cloudy 10 - - - -
24/07:00am 8.3 SW 7 8 1023.5 - 14.2 - Partly cloudy 10 - - - -
24/06:30am 8.6 SW 7 11 1023.2 - 14.2 - Partly cloudy 10 - - - -
24/06:00am 8.4 SSW 5 8 1022.8 - 14.2 - Partly cloudy 10 - - - -
24/05:30am 8.4 SW 7 11 1022.5 - 14.2 - Mostly clear 10 - - - -
24/05:00am 8.4 WSW 7 10 1022.2 - 14.2 - Partly cloudy 10 - - - -
24/04:30am 8.5 SW 7 12 1022.2 - 14.2 - Partly cloudy 10 - - - -
24/04:00am 8.0 WSW 7 8 1021.7 - 14.0 - Partly cloudy 10 - - - -
24/03:30am 8.1 WSW 7 9 1021.5 - 14.0 - Partly cloudy 10 - - - -
24/03:00am 7.7 N 4 7 1021.6 - 13.8 - Partly cloudy 10 - - - -
24/02:30am 7.5 W 3 5 1021.7 - 13.6 - Cloudy 10 - - - -
24/02:00am 8.1 WSW 6 7 1021.8 - 13.6 - Partly cloudy 10 - - - -
24/01:30am 8.2 WNW 6 7 1021.8 - 13.6 - Partly cloudy 10 - - - -
24/01:00am 8.0 W 6 7 1022.0 - 13.6 - Cloudy 10 - - - -
24/12:47am 8.2 W 7 9 1022.1 - 13.6 - Partly cloudy 10 - - - -
24/12:30am 7.9 W 10 15 1022.2 - 13.0 - Partly cloudy 4 - - - -
24/12:18am 7.8 NW 10 22 1022.4 - 11.4 - Partly cloudy 6 - - - -
24/12:16am 7.7 NW 8 22 1022.3 - 10.8 - Partly cloudy 10 - - - -
24/12:00am 7.3 NNW 5 8 1021.8 - 10.6 - Partly cloudy 10 - - - -
 
Date/Time
CST
Temp
°C
Wind Pressure Rain since
9am
mm
Weather Cloud Vis
km
Sea
Height
m
Swell
Dir  Spd
kts
Gust
kts
hPa Trend Height
m
Period
s
Dir
23/11:30pm 6.6 W 4 4 1021.9 - 10.6 Recent precip. Mostly cloudy 10 - - - -
23/11:00pm 7.0 WSW 4 5 1022.0 - 10.6 - Partly cloudy 10 - - - -
23/10:30pm 8.2 SW 7 13 1022.1 - 10.4 - Partly cloudy 10 - - - -
23/10:00pm 7.3 W 5 7 1021.9 - 10.2 - Partly cloudy 10 - - - -
23/09:30pm 7.2 WSW 5 6 1021.9 - 10.2 - Partly cloudy 10 - - - -
23/09:00pm 7.5 WSW 5 7 1021.8 - 10.2 - Partly cloudy 10 - - - -
23/08:30pm 8.9 WSW 7 9 1021.7 - 10.2 - Partly cloudy 10 - - - -
23/08:00pm 8.8 WSW 7 10 1021.5 - 10.2 - Partly cloudy 10 - - - -
23/07:30pm 8.8 WSW 7 9 1021.4 - 10.2 - Partly cloudy 10 - - - -
23/07:00pm 9.2 SW 7 9 1021.2 - 10.2 - Partly cloudy 10 - - - -
23/06:30pm 9.3 WSW 8 11 1020.8 - 10.2 - - 10 - - - -
23/06:00pm 9.7 WSW 9 14 1020.4 - 10.2 - Partly cloudy 10 - - - -
23/05:30pm 10.0 WSW 8 11 1020.1 - 10.2 - Partly cloudy 10 - - - -
23/05:00pm 10.6 SW 10 13 1019.8 - 10.2 - Partly cloudy 10 - - - -
23/04:30pm 11.0 SW 9 13 1019.4 - 10.2 - Partly cloudy 10 - - - -
23/04:00pm 11.1 SW 10 15 1019.1 - 10.2 - Partly cloudy 10 - - - -
23/03:30pm 11.5 SW 10 15 1018.7 - 10.2 - Partly cloudy 10 - - - -
23/03:00pm 11.9 SW 11 18 1018.3 - 10.2 - Partly cloudy 10 - - - -
23/02:30pm 11.7 SW 10 14 1018.1 - 10.2 Recent precip. Cloudy 10 - - - -
23/02:00pm 10.7 WSW 7 11 1017.9 - 10.2 - Partly cloudy 10 - - - -
23/01:30pm 10.6 WSW 11 14 1017.8 - 9.8 - Partly cloudy 10 - - - -
23/01:00pm 11.7 WSW 10 15 1017.3 - 9.4 - Partly cloudy 10 - - - -
23/12:30pm 10.8 SW 10 14 1017.3 - 9.4 - Partly cloudy 10 - - - -
23/12:00pm 9.8 SW 10 17 1017.7 - 9.4 - Partly cloudy 10 - - - -
23/11:30am 10.4 WSW 11 18 1017.9 - 9.0 Recent precip. Mostly cloudy 10 - - - -
23/11:00am 10.4 WSW 8 12 1017.8 - 8.6 - Partly cloudy 10 - - - -
23/10:36am 9.5 W 7 12 1017.3 - 8.6 - Partly cloudy 7 - - - -
23/10:30am 10.2 WSW 5 7 1017.4 - 7.8 - Partly cloudy 9 - - - -
23/10:16am 10.1 WSW 7 9 1017.5 - 7.2 - Partly cloudy 7 - - - -
23/10:01am 9.8 W 10 14 1017.5 - 5.4 - Partly cloudy 6 - - - -
23/10:00am 10.0 W 9 14 1017.5 - 5.2 - Partly cloudy 8 - - - -
23/09:54am 10.5 W 8 10 1017.2 - 4.6 - Partly cloudy 10 - - - -
23/09:30am 10.4 NW 8 11 1016.7 - 3.2 - Partly cloudy 6 - - - -
23/09:28am 10.5 NW 9 13 1016.7 - 3.2 - Partly cloudy 6 - - - -
23/09:12am 10.3 WNW 10 13 1016.9 - 2.4 - Partly cloudy 10 - - - -
23/09:00am 10.3 WNW 9 17 1017.0 - 2.2 - Partly cloudy 6 - - - -
23/08:50am 10.4 NW 11 15 1017.0 - 1.2 - Partly cloudy 5 - - - -
23/08:43am 10.6 NW 11 17 1016.9 - 0.6 - Partly cloudy 6 - - - -
23/08:30am 10.7 NW 11 16 1016.6 - 7.0 Recent precip. Partly cloudy 10 - - - -
23/08:06am 10.2 NNW 10 13 1016.6 - 7.0 - Partly cloudy 10 - - - -
23/08:00am 10.2 NW 9 13 1016.7 - 7.0 - Partly cloudy 9 - - - -
23/07:55am 10.2 NW 9 14 1016.7 - 7.0 - Partly cloudy 6 - - - -
23/07:39am 10.1 NW 10 13 1016.7 - 6.6 - Partly cloudy 10 - - - -
23/07:30am 10.1 NW 12 16 1016.6 - 6.6 - Partly cloudy 7 - - - -
23/07:00am 9.9 NW 8 11 1016.7 - 4.2 - Partly cloudy 6 - - - -
23/06:30am 9.7 NNW 11 14 1016.1 - 2.8 - Partly cloudy 10 - - - -
23/06:00am 9.5 NNW 10 13 1015.9 - 2.8 - - 10 - - - -
23/05:30am 9.6 NNW 10 15 1016.0 - 2.8 Recent precip. Partly cloudy 10 - - - -
23/05:00am 9.8 NNW 12 16 1016.0 - 2.6 - Partly cloudy 10 - - - -
23/04:30am 9.7 NNW 10 14 1016.1 - 2.6 - Partly cloudy 10 - - - -
23/04:00am 9.6 NW 9 13 1016.2 - 2.6 - - 10 - - - -
23/03:30am 9.7 NW 10 15 1016.4 - 2.6 - Partly cloudy 10 - - - -
23/03:12am 10.1 NNW 9 13 1016.6 - 2.6 - Partly cloudy 10 - - - -
23/03:00am 10.1 NW 7 12 1016.7 - 2.6 - Partly cloudy 5 - - - -
23/02:54am 10.1 WNW 6 9 1016.9 - 2.4 - Partly cloudy 5 - - - -
23/02:30am 10.2 NW 9 14 1016.9 - 0.8 - Cloudy 10 - - - -
23/02:00am 10.1 NW 9 12 1017.0 - 0.8 - Partly cloudy 10 - - - -
23/01:30am 10.0 NNW 10 14 1017.1 - 0.8 - Partly cloudy 10 - - - -
23/01:00am 9.8 NNW 11 17 1017.3 - 0.6 - Partly cloudy 10 - - - -
23/12:30am 9.6 NNW 11 16 1017.3 - 0.6 - Partly cloudy 10 - - - -
23/12:00am 9.2 NNW 10 16 1017.4 - 0.6 - - 10 - - - -
 
Date/Time
CST
Temp
°C
Wind Pressure Rain since
9am
mm
Weather Cloud Vis
km
Sea
Height
m
Swell
Dir  Spd
kts
Gust
kts
hPa Trend Height
m
Period
s
Dir
22/11:30pm 9.4 NNW 9 12 1017.4 - 0.6 Recent precip. - 10 - - - -
22/11:19pm 9.6 NNW 9 12 1017.6 - 0.6 - Partly cloudy 10 - - - -
22/11:00pm 9.8 NW 9 13 1017.8 - 0.6 - Partly cloudy 10 - - - -
22/10:49pm 9.9 NNW 9 14 1017.9 - 0.4 - Partly cloudy 10 - - - -
22/10:30pm 9.8 NNW 10 13 1018.0 - 0.4 - Partly cloudy 10 - - - -
22/10:00pm 9.9 NNW 9 15 1018.1 - 0.4 - Partly cloudy 10 - - - -
22/09:30pm 10.4 NNW 10 13 1018.2 - 0.4 - Partly cloudy 10 - - - -
22/09:00pm 10.7 NW 9 14 1018.4 - 0.4 - Partly cloudy 10 - - - -
22/08:57pm 10.7 NW 9 14 1018.4 - 0.4 - Partly cloudy 10 - - - -
22/08:45pm 10.7 NW 8 12 1018.5 - 0.4 - Partly cloudy 10 - - - -
22/08:30pm 10.5 NNW 8 11 1018.4 - 0.2 Recent precip. Mostly cloudy 10 - - - -
22/08:00pm 10.2 NNW 8 11 1018.2 - 0.0 - Partly cloudy 10 - - - -
22/07:30pm 10.4 NNW 7 11 1018.0 - 0.0 - Partly cloudy 10 - - - -
22/07:00pm 11.2 NNW 8 12 1018.0 - 0.0 - - 10 - - - -
22/06:30pm 11.6 NW 8 11 1018.0 - 0.0 - Partly cloudy 10 - - - -
22/06:00pm 11.6 NW 8 12 1017.9 - 0.0 - Partly cloudy 10 - - - -
22/05:30pm 12.2 WNW 11 15 1017.9 - 0.0 - Cloudy 10 - - - -
22/05:00pm 13.0 WNW 12 17 1017.7 - 0.0 - Cloudy 10 - - - -
22/04:30pm 13.1 WNW 12 18 1017.6 - 0.0 - Partly cloudy 10 - - - -
22/04:00pm 13.9 WNW 15 21 1017.4 - 0.0 - - 10 - - - -
22/03:30pm 14.0 WNW 15 23 1017.2 - 0.0 - - 10 - - - -
22/03:00pm 14.2 WNW 13 20 1017.1 - 0.0 - Partly cloudy 10 - - - -
22/02:30pm 13.8 WNW 12 20 1017.1 - 0.0 - Partly cloudy 10 - - - -
22/02:00pm 13.9 WNW 15 18 1017.3 - 0.0 - Partly cloudy 10 - - - -
22/01:30pm 14.1 WNW 15 20 1017.3 - 0.0 - Partly cloudy 10 - - - -
22/01:00pm 14.0 WNW 12 17 1017.4 - 0.0 - Partly cloudy 10 - - - -
22/12:30pm 14.1 WNW 15 23 1017.6 - 0.0 - Partly cloudy 10 - - - -
22/12:00pm 13.4 WNW 14 21 1018.0 - 0.0 - Partly cloudy 10 - - - -
22/11:30am 14.1 NW 10 15 1018.2 - 0.0 - Cloudy 10 - - - -
22/11:00am 13.3 NNW 11 15 1018.4 - 0.0 - Partly cloudy 10 - - - -
22/10:30am 12.6 NW 11 15 1018.5 - 0.0 - Cloudy 10 - - - -
22/10:00am 12.3 NW 10 13 1018.3 - 0.0 - Cloudy 10 - - - -
22/09:30am 11.0 NW 10 14 1018.5 - 0.0 - Cloudy 10 - - - -
22/09:00am 10.1 NNW 7 11 1018.6 - 0.0 - Cloudy 10 - - - -
22/08:30am 9.1 NNW 7 9 1018.4 - 0.8 - Mostly cloudy 10 - - - -
22/08:00am 8.8 NW 7 13 1018.3 - 0.8 - Partly cloudy 8 - - - -
22/07:55am 9.3 NW 8 13 1018.2 - 0.8 - Partly cloudy 7 - - - -
22/07:30am 9.0 NW 8 10 1017.9 - 0.8 - Partly cloudy 10 - - - -
22/07:23am 9.0 WNW 8 10 1017.8 - 0.8 - Partly cloudy 8 - - - -
22/07:05am 7.9 NNW 7 9 1017.6 - 0.4 - Partly cloudy 6 - - - -
22/07:04am 7.9 NNW 7 9 1017.6 - 0.4 - Partly cloudy 7 - - - -
22/07:00am 7.8 NNW 7 9 1017.5 - 0.2 - Partly cloudy 10 - - - -
22/06:30am 7.4 NNW 8 10 1017.0 - 0.2 - Partly cloudy 10 - - - -
22/06:00am 7.0 N 7 8 1016.8 - 0.2 - Partly cloudy 10 - - - -
22/05:30am 7.7 N 7 8 1016.7 - 0.2 Recent precip. Cloudy 10 - - - -
22/05:14am 8.1 N 7 9 1016.6 - 0.2 - Partly cloudy 10 - - - -
22/05:00am 8.7 NNW 7 10 1016.6 - 0.2 - Partly cloudy 5 - - - -
22/04:33am 8.9 NW 9 12 1016.5 - 0.0 - Partly cloudy 6 - - - -
22/04:30am 8.9 NW 8 12 1016.5 - 0.0 - Partly cloudy 10 - - - -
22/04:00am 7.8 NNW 6 7 1016.3 - 0.0 - Partly cloudy 10 - - - -
22/03:30am 7.8 NNW 8 10 1016.3 - 0.0 - Partly cloudy 10 - - - -
22/03:00am 7.7 NNW 7 10 1016.3 - 0.0 - Partly cloudy 10 - - - -
22/02:30am 6.8 N 6 8 1016.3 - 0.0 - Cloudy 10 - - - -
22/02:00am 6.3 N 6 9 1016.3 - 0.0 - Cloudy 10 - - - -
22/01:30am 5.9 N 6 6 1016.6 - 0.0 - Partly cloudy 10 - - - -
22/01:00am 4.4 N 5 7 1016.6 - 0.0 - - 10 - - - -
22/12:30am 4.5 N 5 6 1016.6 - 0.0 - - 10 - - - -
22/12:00am 4.2 N 5 6 1016.6 - 0.0 - - 10 - - - -
 
Date/Time
CST
Temp
°C
Wind Pressure Rain since
9am
mm
Weather Cloud Vis
km
Sea
Height
m
Swell
Dir  Spd
kts
Gust
kts
hPa Trend Height
m
Period
s
Dir
21/11:30pm 4.4 NW 4 5 1016.7 - 0.0 - - 10 - - - -
21/11:00pm 5.0 N 6 7 1016.4 - 0.0 - - 10 - - - -
21/10:30pm 5.6 N 6 7 1016.3 - 0.0 - - 10 - - - -
21/10:00pm 5.7 N 3 5 1016.4 - 0.0 - - 10 - - - -
21/09:30pm 5.5 NW 3 5 1016.4 - 0.0 - - 10 - - - -
21/09:00pm 5.8 NW 1 3 1016.4 - 0.0 - - 10 - - - -
21/08:30pm 6.5 NW 3 4 1016.0 - 0.0 - Mostly clear 10 - - - -
21/08:00pm 6.8 CALM 0 0 1015.6 - 0.0 - Partly cloudy 10 - - - -
21/07:30pm 7.1 CALM 0 0 1015.1 - 0.0 - Partly cloudy 10 - - - -
21/07:00pm 7.8 CALM 0 0 1015.1 - 0.0 - Cloudy 10 - - - -
21/06:30pm 8.0 CALM 0 0 1014.7 - 0.0 - Cloudy 10 - - - -
21/06:00pm 8.8 CALM 0 0 1014.4 - 0.0 - Partly cloudy 10 - - - -
21/05:30pm 10.2 WSW 4 5 1013.9 - 0.0 - Mostly cloudy 10 - - - -
21/05:00pm 11.7 WSW 5 7 1013.4 - 0.0 - Cloudy 10 - - - -
21/04:30pm 11.3 WSW 4 6 1013.0 - 0.0 - Partly cloudy 10 - - - -
21/04:00pm 11.9 WSW 6 9 1012.7 - 0.0 - Cloudy 10 - - - -
21/03:30pm 11.6 WSW 4 6 1012.6 - 0.0 - Cloudy 10 - - - -
21/03:00pm 11.7 W 6 7 1012.2 - 0.0 - Partly cloudy 10 - - - -
21/02:30pm 12.3 N 5 9 1011.8 - 0.0 - Mostly clear 10 - - - -
21/02:00pm 12.1 N 6 9 1011.8 - 0.0 - - 10 - - - -
21/01:30pm 12.3 N 7 10 1011.8 - 0.0 - Partly cloudy 10 - - - -
21/01:00pm 11.6 NNE 7 10 1011.9 - 0.0 - Cloudy 10 - - - -
21/12:30pm 11.4 N 8 11 1012.2 - 0.0 - Cloudy 10 - - - -
21/12:00pm 10.0 NNE 8 11 1012.4 - 0.0 - Cloudy 10 - - - -
21/11:30am 9.6 N 8 12 1012.7 - 0.0 - Mostly cloudy 10 - - - -
21/11:00am 9.3 NNE 9 13 1012.8 - 0.0 - Partly cloudy 10 - - - -
21/10:30am 8.4 NNE 9 13 1012.9 - 0.0 - Cloudy 10 - - - -

Other Formats:

Comma delimited format used in spreadsheet applications
http://www.bom.gov.au/fwo/IDS60701/IDS60701.94828.axf

JavaScript Object Notation format (JSON) in row-major order
http://www.bom.gov.au/fwo/IDS60701/IDS60701.94828.json